sensor_id;sensor_type;location;lat;lon;timestamp;P1;durP1;ratioP1;P2;durP2;ratioP2
6372;SDS011;3219;51.362;7.074;2023-10-13T00:00:26;10.48;;;6.95;;
6372;SDS011;3219;51.362;7.074;2023-10-13T00:03:02;11.32;;;6.40;;
6372;SDS011;3219;51.362;7.074;2023-10-13T00:05:31;9.57;;;6.38;;
6372;SDS011;3219;51.362;7.074;2023-10-13T00:10:29;10.52;;;6.80;;
6372;SDS011;3219;51.362;7.074;2023-10-13T00:15:38;11.25;;;7.30;;
6372;SDS011;3219;51.362;7.074;2023-10-13T00:18:12;11.15;;;6.45;;
6372;SDS011;3219;51.362;7.074;2023-10-13T00:20:44;10.13;;;6.50;;
6372;SDS011;3219;51.362;7.074;2023-10-13T00:23:15;10.80;;;5.43;;
6372;SDS011;3219;51.362;7.074;2023-10-13T00:25:46;10.00;;;6.22;;
6372;SDS011;3219;51.362;7.074;2023-10-13T00:28:24;11.23;;;7.25;;
6372;SDS011;3219;51.362;7.074;2023-10-13T00:31:00;9.57;;;6.35;;
6372;SDS011;3219;51.362;7.074;2023-10-13T00:33:37;12.93;;;6.57;;
6372;SDS011;3219;51.362;7.074;2023-10-13T00:36:07;9.27;;;5.95;;
6372;SDS011;3219;51.362;7.074;2023-10-13T00:41:13;9.20;;;5.63;;
6372;SDS011;3219;51.362;7.074;2023-10-13T00:43:46;9.63;;;6.05;;
6372;SDS011;3219;51.362;7.074;2023-10-13T00:46:29;12.35;;;7.15;;
6372;SDS011;3219;51.362;7.074;2023-10-13T00:49:01;9.43;;;5.90;;
6372;SDS011;3219;51.362;7.074;2023-10-13T00:51:30;9.88;;;6.80;;
6372;SDS011;3219;51.362;7.074;2023-10-13T00:54:02;11.93;;;6.57;;
6372;SDS011;3219;51.362;7.074;2023-10-13T00:56:35;9.15;;;6.18;;
6372;SDS011;3219;51.362;7.074;2023-10-13T00:59:12;11.80;;;6.30;;
6372;SDS011;3219;51.362;7.074;2023-10-13T01:01:40;12.00;;;6.50;;
6372;SDS011;3219;51.362;7.074;2023-10-13T01:04:10;9.35;;;6.22;;
6372;SDS011;3219;51.362;7.074;2023-10-13T01:06:40;11.77;;;6.20;;
6372;SDS011;3219;51.362;7.074;2023-10-13T01:09:11;8.27;;;5.25;;
6372;SDS011;3219;51.362;7.074;2023-10-13T01:11:39;12.57;;;6.78;;
6372;SDS011;3219;51.362;7.074;2023-10-13T01:14:10;9.82;;;5.53;;
6372;SDS011;3219;51.362;7.074;2023-10-13T01:16:40;12.43;;;5.90;;
6372;SDS011;3219;51.362;7.074;2023-10-13T01:19:11;7.85;;;4.72;;
6372;SDS011;3219;51.362;7.074;2023-10-13T01:21:39;10.20;;;6.75;;
6372;SDS011;3219;51.362;7.074;2023-10-13T01:24:10;9.85;;;5.63;;
6372;SDS011;3219;51.362;7.074;2023-10-13T01:29:08;10.95;;;4.95;;
6372;SDS011;3219;51.362;7.074;2023-10-13T01:31:40;8.40;;;5.47;;
6372;SDS011;3219;51.362;7.074;2023-10-13T01:34:12;8.98;;;5.63;;
6372;SDS011;3219;51.362;7.074;2023-10-13T01:36:45;7.68;;;5.60;;
6372;SDS011;3219;51.362;7.074;2023-10-13T01:39:17;10.85;;;6.70;;
6372;SDS011;3219;51.362;7.074;2023-10-13T01:41:46;9.18;;;6.10;;
6372;SDS011;3219;51.362;7.074;2023-10-13T01:44:20;10.70;;;5.70;;
6372;SDS011;3219;51.362;7.074;2023-10-13T01:46:47;11.10;;;6.40;;
6372;SDS011;3219;51.362;7.074;2023-10-13T01:49:16;10.13;;;6.85;;
6372;SDS011;3219;51.362;7.074;2023-10-13T01:51:44;8.73;;;6.00;;
6372;SDS011;3219;51.362;7.074;2023-10-13T01:54:13;8.48;;;5.80;;
6372;SDS011;3219;51.362;7.074;2023-10-13T01:56:42;7.95;;;5.03;;
6372;SDS011;3219;51.362;7.074;2023-10-13T01:59:10;10.80;;;5.30;;
6372;SDS011;3219;51.362;7.074;2023-10-13T02:01:38;10.15;;;5.82;;
6372;SDS011;3219;51.362;7.074;2023-10-13T02:04:07;7.50;;;5.22;;
6372;SDS011;3219;51.362;7.074;2023-10-13T02:06:36;7.75;;;5.50;;
6372;SDS011;3219;51.362;7.074;2023-10-13T02:09:05;8.77;;;6.30;;
6372;SDS011;3219;51.362;7.074;2023-10-13T02:11:38;9.70;;;6.40;;
6372;SDS011;3219;51.362;7.074;2023-10-13T02:14:09;10.18;;;5.82;;
6372;SDS011;3219;51.362;7.074;2023-10-13T02:16:36;9.38;;;6.60;;
6372;SDS011;3219;51.362;7.074;2023-10-13T02:19:04;7.00;;;5.07;;
6372;SDS011;3219;51.362;7.074;2023-10-13T02:21:33;8.05;;;5.50;;
6372;SDS011;3219;51.362;7.074;2023-10-13T02:24:09;8.63;;;5.68;;
6372;SDS011;3219;51.362;7.074;2023-10-13T02:26:37;8.73;;;4.80;;
6372;SDS011;3219;51.362;7.074;2023-10-13T02:29:06;10.50;;;6.80;;
6372;SDS011;3219;51.362;7.074;2023-10-13T02:31:35;8.88;;;4.88;;
6372;SDS011;3219;51.362;7.074;2023-10-13T02:34:04;8.43;;;5.57;;
6372;SDS011;3219;51.362;7.074;2023-10-13T02:36:33;9.60;;;5.35;;
6372;SDS011;3219;51.362;7.074;2023-10-13T02:39:12;9.63;;;5.22;;
6372;SDS011;3219;51.362;7.074;2023-10-13T02:44:13;8.90;;;5.15;;
6372;SDS011;3219;51.362;7.074;2023-10-13T02:46:53;8.95;;;5.05;;
6372;SDS011;3219;51.362;7.074;2023-10-13T02:49:21;8.25;;;4.85;;
6372;SDS011;3219;51.362;7.074;2023-10-13T02:54:20;5.78;;;4.03;;
6372;SDS011;3219;51.362;7.074;2023-10-13T02:56:47;8.13;;;4.85;;
6372;SDS011;3219;51.362;7.074;2023-10-13T02:59:21;6.13;;;4.65;;
6372;SDS011;3219;51.362;7.074;2023-10-13T03:02:00;6.38;;;4.40;;
6372;SDS011;3219;51.362;7.074;2023-10-13T03:04:42;7.63;;;5.22;;
6372;SDS011;3219;51.362;7.074;2023-10-13T03:07:09;9.02;;;5.32;;
6372;SDS011;3219;51.362;7.074;2023-10-13T03:09:40;10.82;;;4.63;;
6372;SDS011;3219;51.362;7.074;2023-10-13T03:12:15;7.65;;;4.90;;
6372;SDS011;3219;51.362;7.074;2023-10-13T03:14:44;9.40;;;5.65;;
6372;SDS011;3219;51.362;7.074;2023-10-13T03:17:14;10.52;;;6.20;;
6372;SDS011;3219;51.362;7.074;2023-10-13T03:19:44;9.45;;;5.18;;
6372;SDS011;3219;51.362;7.074;2023-10-13T03:22:15;11.18;;;6.35;;
6372;SDS011;3219;51.362;7.074;2023-10-13T03:24:55;8.70;;;6.10;;
6372;SDS011;3219;51.362;7.074;2023-10-13T03:27:30;9.10;;;5.97;;
6372;SDS011;3219;51.362;7.074;2023-10-13T03:30:05;7.30;;;4.90;;
6372;SDS011;3219;51.362;7.074;2023-10-13T03:32:41;11.90;;;5.68;;
6372;SDS011;3219;51.362;7.074;2023-10-13T03:35:11;12.15;;;6.75;;
6372;SDS011;3219;51.362;7.074;2023-10-13T03:37:48;11.27;;;6.32;;
6372;SDS011;3219;51.362;7.074;2023-10-13T03:40:17;10.10;;;6.15;;
6372;SDS011;3219;51.362;7.074;2023-10-13T03:42:59;8.85;;;5.75;;
6372;SDS011;3219;51.362;7.074;2023-10-13T03:45:30;10.05;;;6.20;;
6372;SDS011;3219;51.362;7.074;2023-10-13T03:48:04;9.70;;;6.30;;
6372;SDS011;3219;51.362;7.074;2023-10-13T03:50:46;10.80;;;6.15;;
6372;SDS011;3219;51.362;7.074;2023-10-13T03:53:26;10.20;;;5.85;;
6372;SDS011;3219;51.362;7.074;2023-10-13T03:55:59;9.73;;;6.45;;
6372;SDS011;3219;51.362;7.074;2023-10-13T03:58:37;11.43;;;6.63;;
6372;SDS011;3219;51.362;7.074;2023-10-13T04:01:10;9.27;;;5.97;;
6372;SDS011;3219;51.362;7.074;2023-10-13T04:03:42;8.63;;;5.97;;
6372;SDS011;3219;51.362;7.074;2023-10-13T04:06:28;11.65;;;6.18;;
6372;SDS011;3219;51.362;7.074;2023-10-13T04:09:38;8.57;;;5.97;;
6372;SDS011;3219;51.362;7.074;2023-10-13T04:12:24;8.38;;;5.45;;
6372;SDS011;3219;51.362;7.074;2023-10-13T04:15:07;9.05;;;5.97;;
6372;SDS011;3219;51.362;7.074;2023-10-13T04:17:43;9.38;;;5.90;;
6372;SDS011;3219;51.362;7.074;2023-10-13T04:20:15;8.35;;;5.50;;
6372;SDS011;3219;51.362;7.074;2023-10-13T04:22:58;8.80;;;6.13;;
6372;SDS011;3219;51.362;7.074;2023-10-13T04:25:50;10.60;;;5.72;;
6372;SDS011;3219;51.362;7.074;2023-10-13T04:28:33;13.88;;;6.35;;
6372;SDS011;3219;51.362;7.074;2023-10-13T04:31:17;8.40;;;5.68;;
6372;SDS011;3219;51.362;7.074;2023-10-13T04:36:54;9.43;;;5.72;;
6372;SDS011;3219;51.362;7.074;2023-10-13T04:39:42;13.07;;;7.65;;
6372;SDS011;3219;51.362;7.074;2023-10-13T04:42:15;9.43;;;7.05;;
6372;SDS011;3219;51.362;7.074;2023-10-13T04:45:04;8.23;;;5.45;;
6372;SDS011;3219;51.362;7.074;2023-10-13T04:48:02;10.35;;;6.50;;
6372;SDS011;3219;51.362;7.074;2023-10-13T04:50:44;12.32;;;5.95;;
6372;SDS011;3219;51.362;7.074;2023-10-13T04:53:17;11.05;;;6.75;;
6372;SDS011;3219;51.362;7.074;2023-10-13T04:55:55;11.25;;;6.22;;
6372;SDS011;3219;51.362;7.074;2023-10-13T04:58:54;9.27;;;6.15;;
6372;SDS011;3219;51.362;7.074;2023-10-13T05:01:43;13.20;;;7.15;;
6372;SDS011;3219;51.362;7.074;2023-10-13T05:04:29;9.98;;;5.75;;
6372;SDS011;3219;51.362;7.074;2023-10-13T05:07:24;8.52;;;5.88;;
6372;SDS011;3219;51.362;7.074;2023-10-13T05:10:12;9.77;;;6.22;;
6372;SDS011;3219;51.362;7.074;2023-10-13T05:15:47;8.93;;;5.20;;
6372;SDS011;3219;51.362;7.074;2023-10-13T05:18:34;12.57;;;6.93;;
6372;SDS011;3219;51.362;7.074;2023-10-13T05:21:20;11.68;;;6.25;;
6372;SDS011;3219;51.362;7.074;2023-10-13T05:24:07;10.70;;;5.97;;
6372;SDS011;3219;51.362;7.074;2023-10-13T05:26:56;12.75;;;6.05;;
6372;SDS011;3219;51.362;7.074;2023-10-13T05:29:42;8.30;;;5.43;;
6372;SDS011;3219;51.362;7.074;2023-10-13T05:32:29;11.13;;;6.82;;
6372;SDS011;3219;51.362;7.074;2023-10-13T05:35:16;10.10;;;6.22;;
6372;SDS011;3219;51.362;7.074;2023-10-13T05:38:03;12.18;;;5.90;;
6372;SDS011;3219;51.362;7.074;2023-10-13T05:40:52;9.95;;;5.68;;
6372;SDS011;3219;51.362;7.074;2023-10-13T05:43:40;10.75;;;6.13;;
6372;SDS011;3219;51.362;7.074;2023-10-13T05:46:27;10.07;;;5.95;;
6372;SDS011;3219;51.362;7.074;2023-10-13T05:49:26;10.38;;;5.47;;
6372;SDS011;3219;51.362;7.074;2023-10-13T05:52:14;10.13;;;5.75;;
6372;SDS011;3219;51.362;7.074;2023-10-13T05:55:06;9.48;;;5.57;;
6372;SDS011;3219;51.362;7.074;2023-10-13T05:57:52;10.55;;;6.45;;
6372;SDS011;3219;51.362;7.074;2023-10-13T06:00:41;10.00;;;5.40;;
6372;SDS011;3219;51.362;7.074;2023-10-13T06:03:27;9.27;;;4.63;;
6372;SDS011;3219;51.362;7.074;2023-10-13T06:06:14;9.35;;;4.90;;
6372;SDS011;3219;51.362;7.074;2023-10-13T06:09:08;11.27;;;5.32;;
6372;SDS011;3219;51.362;7.074;2023-10-13T06:11:55;9.65;;;5.13;;
6372;SDS011;3219;51.362;7.074;2023-10-13T06:14:44;8.18;;;5.28;;
6372;SDS011;3219;51.362;7.074;2023-10-13T06:17:32;8.25;;;4.80;;
6372;SDS011;3219;51.362;7.074;2023-10-13T06:20:18;9.48;;;4.78;;
6372;SDS011;3219;51.362;7.074;2023-10-13T06:23:05;9.82;;;5.40;;
6372;SDS011;3219;51.362;7.074;2023-10-13T06:25:51;8.40;;;5.38;;
6372;SDS011;3219;51.362;7.074;2023-10-13T06:28:38;10.32;;;5.80;;
6372;SDS011;3219;51.362;7.074;2023-10-13T06:31:07;9.73;;;5.10;;
6372;SDS011;3219;51.362;7.074;2023-10-13T06:33:41;11.68;;;5.07;;
6372;SDS011;3219;51.362;7.074;2023-10-13T06:36:10;9.23;;;5.97;;
6372;SDS011;3219;51.362;7.074;2023-10-13T06:38:39;12.23;;;5.50;;
6372;SDS011;3219;51.362;7.074;2023-10-13T06:41:08;10.00;;;6.03;;
6372;SDS011;3219;51.362;7.074;2023-10-13T06:43:45;9.00;;;5.65;;
6372;SDS011;3219;51.362;7.074;2023-10-13T06:46:24;13.60;;;5.85;;
6372;SDS011;3219;51.362;7.074;2023-10-13T06:48:55;9.02;;;6.10;;
6372;SDS011;3219;51.362;7.074;2023-10-13T06:51:25;10.80;;;6.50;;
6372;SDS011;3219;51.362;7.074;2023-10-13T06:54:02;8.40;;;5.95;;
6372;SDS011;3219;51.362;7.074;2023-10-13T06:56:35;11.20;;;6.32;;
6372;SDS011;3219;51.362;7.074;2023-10-13T06:59:05;11.68;;;7.15;;
6372;SDS011;3219;51.362;7.074;2023-10-13T07:01:35;11.57;;;5.78;;
6372;SDS011;3219;51.362;7.074;2023-10-13T07:04:07;10.35;;;5.35;;
6372;SDS011;3219;51.362;7.074;2023-10-13T07:06:39;10.27;;;5.93;;
6372;SDS011;3219;51.362;7.074;2023-10-13T07:09:12;7.25;;;5.25;;
6372;SDS011;3219;51.362;7.074;2023-10-13T07:11:58;10.15;;;5.88;;
6372;SDS011;3219;51.362;7.074;2023-10-13T07:14:28;8.68;;;5.13;;
6372;SDS011;3219;51.362;7.074;2023-10-13T07:16:59;9.32;;;5.80;;
6372;SDS011;3219;51.362;7.074;2023-10-13T07:19:31;11.32;;;5.30;;
6372;SDS011;3219;51.362;7.074;2023-10-13T07:22:00;10.27;;;5.35;;
6372;SDS011;3219;51.362;7.074;2023-10-13T07:24:44;13.65;;;5.38;;
6372;SDS011;3219;51.362;7.074;2023-10-13T07:27:14;11.38;;;5.38;;
6372;SDS011;3219;51.362;7.074;2023-10-13T07:29:48;11.48;;;4.78;;
6372;SDS011;3219;51.362;7.074;2023-10-13T07:32:21;10.35;;;5.03;;
6372;SDS011;3219;51.362;7.074;2023-10-13T07:34:53;9.43;;;4.43;;
6372;SDS011;3219;51.362;7.074;2023-10-13T07:37:22;9.05;;;4.35;;
6372;SDS011;3219;51.362;7.074;2023-10-13T07:39:54;8.48;;;5.20;;
6372;SDS011;3219;51.362;7.074;2023-10-13T07:42:24;8.13;;;5.22;;
6372;SDS011;3219;51.362;7.074;2023-10-13T07:44:57;13.35;;;5.80;;
6372;SDS011;3219;51.362;7.074;2023-10-13T07:47:29;8.68;;;5.00;;
6372;SDS011;3219;51.362;7.074;2023-10-13T07:50:00;9.00;;;4.38;;
6372;SDS011;3219;51.362;7.074;2023-10-13T07:52:31;9.38;;;5.75;;
6372;SDS011;3219;51.362;7.074;2023-10-13T07:57:45;13.35;;;4.72;;
6372;SDS011;3219;51.362;7.074;2023-10-13T08:00:20;9.32;;;4.82;;
6372;SDS011;3219;51.362;7.074;2023-10-13T08:02:55;7.70;;;4.30;;
6372;SDS011;3219;51.362;7.074;2023-10-13T08:05:36;12.73;;;5.55;;
6372;SDS011;3219;51.362;7.074;2023-10-13T08:08:21;13.98;;;4.82;;
6372;SDS011;3219;51.362;7.074;2023-10-13T08:10:51;6.97;;;4.60;;
6372;SDS011;3219;51.362;7.074;2023-10-13T08:13:25;8.88;;;5.00;;
6372;SDS011;3219;51.362;7.074;2023-10-13T08:15:54;10.73;;;4.75;;
6372;SDS011;3219;51.362;7.074;2023-10-13T08:18:31;10.32;;;4.10;;
6372;SDS011;3219;51.362;7.074;2023-10-13T08:21:02;13.10;;;4.43;;
6372;SDS011;3219;51.362;7.074;2023-10-13T08:23:32;8.90;;;4.05;;
6372;SDS011;3219;51.362;7.074;2023-10-13T08:26:20;9.57;;;4.40;;
6372;SDS011;3219;51.362;7.074;2023-10-13T08:29:12;9.95;;;4.20;;
6372;SDS011;3219;51.362;7.074;2023-10-13T08:31:58;9.63;;;4.00;;
6372;SDS011;3219;51.362;7.074;2023-10-13T08:34:39;12.07;;;3.97;;
6372;SDS011;3219;51.362;7.074;2023-10-13T08:37:24;9.73;;;3.60;;
6372;SDS011;3219;51.362;7.074;2023-10-13T08:39:55;10.63;;;4.50;;
6372;SDS011;3219;51.362;7.074;2023-10-13T08:42:44;9.98;;;3.95;;
6372;SDS011;3219;51.362;7.074;2023-10-13T08:45:27;8.98;;;3.55;;
6372;SDS011;3219;51.362;7.074;2023-10-13T08:48:10;12.82;;;4.80;;
6372;SDS011;3219;51.362;7.074;2023-10-13T08:50:42;11.02;;;4.50;;
6372;SDS011;3219;51.362;7.074;2023-10-13T08:53:19;9.93;;;4.32;;
6372;SDS011;3219;51.362;7.074;2023-10-13T08:55:58;10.90;;;3.65;;
6372;SDS011;3219;51.362;7.074;2023-10-13T08:58:30;11.35;;;4.18;;
6372;SDS011;3219;51.362;7.074;2023-10-13T09:01:25;9.52;;;4.93;;
6372;SDS011;3219;51.362;7.074;2023-10-13T09:04:00;12.30;;;4.53;;
6372;SDS011;3219;51.362;7.074;2023-10-13T09:06:47;9.88;;;4.03;;
6372;SDS011;3219;51.362;7.074;2023-10-13T09:09:47;10.07;;;3.42;;
6372;SDS011;3219;51.362;7.074;2023-10-13T09:12:25;8.77;;;3.45;;
6372;SDS011;3219;51.362;7.074;2023-10-13T09:15:10;8.20;;;3.40;;
6372;SDS011;3219;51.362;7.074;2023-10-13T09:17:49;9.82;;;4.20;;
6372;SDS011;3219;51.362;7.074;2023-10-13T09:20:17;12.77;;;4.43;;
6372;SDS011;3219;51.362;7.074;2023-10-13T09:22:49;10.02;;;4.38;;
6372;SDS011;3219;51.362;7.074;2023-10-13T09:25:34;10.60;;;4.07;;
6372;SDS011;3219;51.362;7.074;2023-10-13T09:28:03;8.95;;;4.03;;
6372;SDS011;3219;51.362;7.074;2023-10-13T09:30:42;10.18;;;4.15;;
6372;SDS011;3219;51.362;7.074;2023-10-13T09:33:09;11.48;;;3.97;;
6372;SDS011;3219;51.362;7.074;2023-10-13T09:35:43;7.53;;;3.85;;
6372;SDS011;3219;51.362;7.074;2023-10-13T09:38:14;9.60;;;3.50;;
6372;SDS011;3219;51.362;7.074;2023-10-13T09:40:44;14.00;;;3.97;;
6372;SDS011;3219;51.362;7.074;2023-10-13T09:43:15;9.23;;;3.60;;
6372;SDS011;3219;51.362;7.074;2023-10-13T09:45:43;10.70;;;4.00;;
6372;SDS011;3219;51.362;7.074;2023-10-13T09:48:28;10.85;;;3.53;;
6372;SDS011;3219;51.362;7.074;2023-10-13T09:50:59;11.77;;;3.65;;
6372;SDS011;3219;51.362;7.074;2023-10-13T09:53:27;10.07;;;3.55;;
6372;SDS011;3219;51.362;7.074;2023-10-13T09:56:00;9.88;;;4.40;;
6372;SDS011;3219;51.362;7.074;2023-10-13T09:58:38;9.25;;;3.13;;
6372;SDS011;3219;51.362;7.074;2023-10-13T10:01:12;11.27;;;3.55;;
6372;SDS011;3219;51.362;7.074;2023-10-13T10:03:45;8.85;;;3.83;;
6372;SDS011;3219;51.362;7.074;2023-10-13T10:06:21;9.88;;;3.60;;
6372;SDS011;3219;51.362;7.074;2023-10-13T10:09:03;9.35;;;3.88;;
6372;SDS011;3219;51.362;7.074;2023-10-13T10:14:28;9.73;;;3.80;;
6372;SDS011;3219;51.362;7.074;2023-10-13T10:17:01;8.18;;;3.90;;
6372;SDS011;3219;51.362;7.074;2023-10-13T10:19:46;8.15;;;3.83;;
6372;SDS011;3219;51.362;7.074;2023-10-13T10:22:24;9.57;;;4.20;;
6372;SDS011;3219;51.362;7.074;2023-10-13T10:24:58;9.02;;;3.97;;
6372;SDS011;3219;51.362;7.074;2023-10-13T10:27:28;8.25;;;4.25;;
6372;SDS011;3219;51.362;7.074;2023-10-13T10:32:36;9.27;;;4.93;;
6372;SDS011;3219;51.362;7.074;2023-10-13T10:35:07;11.02;;;4.68;;
6372;SDS011;3219;51.362;7.074;2023-10-13T10:37:39;8.48;;;3.90;;
6372;SDS011;3219;51.362;7.074;2023-10-13T10:40:13;12.90;;;4.13;;
6372;SDS011;3219;51.362;7.074;2023-10-13T10:42:58;11.45;;;4.75;;
6372;SDS011;3219;51.362;7.074;2023-10-13T10:45:28;8.75;;;4.13;;
6372;SDS011;3219;51.362;7.074;2023-10-13T10:48:00;10.82;;;4.13;;
6372;SDS011;3219;51.362;7.074;2023-10-13T10:50:42;11.18;;;4.75;;
6372;SDS011;3219;51.362;7.074;2023-10-13T10:53:12;9.32;;;4.15;;
6372;SDS011;3219;51.362;7.074;2023-10-13T10:55:40;9.63;;;4.53;;
6372;SDS011;3219;51.362;7.074;2023-10-13T10:58:09;10.68;;;5.18;;
6372;SDS011;3219;51.362;7.074;2023-10-13T11:01:03;11.40;;;5.53;;
6372;SDS011;3219;51.362;7.074;2023-10-13T11:03:36;7.55;;;4.47;;
6372;SDS011;3219;51.362;7.074;2023-10-13T11:06:10;9.13;;;4.32;;
6372;SDS011;3219;51.362;7.074;2023-10-13T11:08:43;10.38;;;4.57;;
6372;SDS011;3219;51.362;7.074;2023-10-13T11:11:16;9.45;;;4.55;;
6372;SDS011;3219;51.362;7.074;2023-10-13T11:13:45;8.90;;;5.18;;
6372;SDS011;3219;51.362;7.074;2023-10-13T11:16:20;8.80;;;5.40;;
6372;SDS011;3219;51.362;7.074;2023-10-13T11:19:00;10.75;;;4.45;;
6372;SDS011;3219;51.362;7.074;2023-10-13T11:21:30;9.60;;;4.53;;
6372;SDS011;3219;51.362;7.074;2023-10-13T11:24:02;8.77;;;4.03;;
6372;SDS011;3219;51.362;7.074;2023-10-13T11:26:34;12.68;;;5.28;;
6372;SDS011;3219;51.362;7.074;2023-10-13T11:29:13;9.27;;;4.93;;
6372;SDS011;3219;51.362;7.074;2023-10-13T11:31:44;9.23;;;5.43;;
6372;SDS011;3219;51.362;7.074;2023-10-13T11:34:19;11.52;;;4.93;;
6372;SDS011;3219;51.362;7.074;2023-10-13T11:36:48;11.32;;;5.10;;
6372;SDS011;3219;51.362;7.074;2023-10-13T11:39:17;9.80;;;4.28;;
6372;SDS011;3219;51.362;7.074;2023-10-13T11:41:49;11.70;;;4.57;;
6372;SDS011;3219;51.362;7.074;2023-10-13T11:44:20;8.60;;;4.63;;
6372;SDS011;3219;51.362;7.074;2023-10-13T11:46:56;10.27;;;5.93;;
6372;SDS011;3219;51.362;7.074;2023-10-13T11:49:58;9.48;;;5.00;;
6372;SDS011;3219;51.362;7.074;2023-10-13T11:52:30;9.13;;;5.22;;
6372;SDS011;3219;51.362;7.074;2023-10-13T11:54:58;8.82;;;4.50;;
6372;SDS011;3219;51.362;7.074;2023-10-13T11:57:27;10.13;;;4.88;;
6372;SDS011;3219;51.362;7.074;2023-10-13T11:59:56;13.85;;;4.28;;
6372;SDS011;3219;51.362;7.074;2023-10-13T12:02:50;9.73;;;4.72;;
6372;SDS011;3219;51.362;7.074;2023-10-13T12:05:38;8.82;;;4.60;;
6372;SDS011;3219;51.362;7.074;2023-10-13T12:08:31;13.82;;;5.00;;
6372;SDS011;3219;51.362;7.074;2023-10-13T12:11:03;10.50;;;5.28;;
6372;SDS011;3219;51.362;7.074;2023-10-13T12:13:46;11.52;;;4.53;;
6372;SDS011;3219;51.362;7.074;2023-10-13T12:16:14;12.65;;;5.50;;
6372;SDS011;3219;51.362;7.074;2023-10-13T12:18:44;7.47;;;4.30;;
6372;SDS011;3219;51.362;7.074;2023-10-13T12:21:19;12.88;;;4.38;;
6372;SDS011;3219;51.362;7.074;2023-10-13T12:23:48;10.15;;;4.40;;
6372;SDS011;3219;51.362;7.074;2023-10-13T12:26:18;10.38;;;4.82;;
6372;SDS011;3219;51.362;7.074;2023-10-13T12:28:57;11.57;;;4.38;;
6372;SDS011;3219;51.362;7.074;2023-10-13T12:31:31;10.65;;;4.63;;
6372;SDS011;3219;51.362;7.074;2023-10-13T12:34:04;13.57;;;4.53;;
6372;SDS011;3219;51.362;7.074;2023-10-13T12:36:40;11.93;;;4.88;;
6372;SDS011;3219;51.362;7.074;2023-10-13T12:39:18;10.32;;;3.83;;
6372;SDS011;3219;51.362;7.074;2023-10-13T12:42:04;8.55;;;3.97;;
6372;SDS011;3219;51.362;7.074;2023-10-13T12:44:50;7.30;;;3.92;;
6372;SDS011;3219;51.362;7.074;2023-10-13T12:47:36;11.00;;;4.13;;
6372;SDS011;3219;51.362;7.074;2023-10-13T12:50:22;9.23;;;4.47;;
6372;SDS011;3219;51.362;7.074;2023-10-13T12:53:10;10.70;;;3.78;;
6372;SDS011;3219;51.362;7.074;2023-10-13T12:55:39;15.45;;;3.85;;
6372;SDS011;3219;51.362;7.074;2023-10-13T12:58:08;12.38;;;4.10;;
6372;SDS011;3219;51.362;7.074;2023-10-13T13:00:37;9.43;;;3.50;;
6372;SDS011;3219;51.362;7.074;2023-10-13T13:03:13;10.10;;;4.82;;
6372;SDS011;3219;51.362;7.074;2023-10-13T13:08:15;10.98;;;3.85;;
6372;SDS011;3219;51.362;7.074;2023-10-13T13:10:47;13.30;;;4.68;;
6372;SDS011;3219;51.362;7.074;2023-10-13T13:13:16;10.50;;;3.70;;
6372;SDS011;3219;51.362;7.074;2023-10-13T13:15:49;13.50;;;4.07;;
6372;SDS011;3219;51.362;7.074;2023-10-13T13:18:18;12.35;;;4.22;;
6372;SDS011;3219;51.362;7.074;2023-10-13T13:20:46;14.52;;;3.80;;
6372;SDS011;3219;51.362;7.074;2023-10-13T13:23:21;9.20;;;4.15;;
6372;SDS011;3219;51.362;7.074;2023-10-13T13:25:51;13.52;;;4.45;;
6372;SDS011;3219;51.362;7.074;2023-10-13T13:28:21;11.40;;;3.92;;
6372;SDS011;3219;51.362;7.074;2023-10-13T13:30:53;11.68;;;3.90;;
6372;SDS011;3219;51.362;7.074;2023-10-13T13:33:22;13.20;;;4.18;;
6372;SDS011;3219;51.362;7.074;2023-10-13T13:35:54;14.05;;;4.00;;
6372;SDS011;3219;51.362;7.074;2023-10-13T13:38:26;12.80;;;5.70;;
6372;SDS011;3219;51.362;7.074;2023-10-13T13:40:57;11.20;;;4.35;;
6372;SDS011;3219;51.362;7.074;2023-10-13T13:43:28;10.10;;;4.35;;
6372;SDS011;3219;51.362;7.074;2023-10-13T13:46:15;11.00;;;3.50;;
6372;SDS011;3219;51.362;7.074;2023-10-13T13:48:44;11.93;;;4.10;;
6372;SDS011;3219;51.362;7.074;2023-10-13T13:51:13;9.38;;;3.55;;
6372;SDS011;3219;51.362;7.074;2023-10-13T13:53:46;17.20;;;4.20;;
6372;SDS011;3219;51.362;7.074;2023-10-13T13:56:14;9.20;;;3.85;;
6372;SDS011;3219;51.362;7.074;2023-10-13T13:58:43;9.00;;;4.07;;
6372;SDS011;3219;51.362;7.074;2023-10-13T14:01:12;10.82;;;4.28;;
6372;SDS011;3219;51.362;7.074;2023-10-13T14:03:43;10.23;;;3.63;;
6372;SDS011;3219;51.362;7.074;2023-10-13T14:06:12;10.73;;;3.88;;
6372;SDS011;3219;51.362;7.074;2023-10-13T14:08:43;13.45;;;3.95;;
6372;SDS011;3219;51.362;7.074;2023-10-13T14:11:15;14.05;;;5.28;;
6372;SDS011;3219;51.362;7.074;2023-10-13T14:14:08;10.57;;;4.05;;
6372;SDS011;3219;51.362;7.074;2023-10-13T14:16:53;12.15;;;3.83;;
6372;SDS011;3219;51.362;7.074;2023-10-13T14:19:28;10.90;;;3.55;;
6372;SDS011;3219;51.362;7.074;2023-10-13T14:21:57;8.10;;;3.47;;
6372;SDS011;3219;51.362;7.074;2023-10-13T14:24:31;12.60;;;4.20;;
6372;SDS011;3219;51.362;7.074;2023-10-13T14:27:02;11.82;;;3.63;;
6372;SDS011;3219;51.362;7.074;2023-10-13T14:29:34;8.90;;;3.35;;
6372;SDS011;3219;51.362;7.074;2023-10-13T14:32:06;9.20;;;4.53;;
6372;SDS011;3219;51.362;7.074;2023-10-13T14:34:38;9.27;;;3.70;;
6372;SDS011;3219;51.362;7.074;2023-10-13T14:37:06;9.15;;;4.18;;
6372;SDS011;3219;51.362;7.074;2023-10-13T14:39:37;11.35;;;5.15;;
6372;SDS011;3219;51.362;7.074;2023-10-13T14:42:08;11.20;;;6.07;;
6372;SDS011;3219;51.362;7.074;2023-10-13T14:44:36;7.50;;;3.83;;
6372;SDS011;3219;51.362;7.074;2023-10-13T14:47:05;8.38;;;3.33;;
6372;SDS011;3219;51.362;7.074;2023-10-13T14:49:34;10.80;;;4.05;;
6372;SDS011;3219;51.362;7.074;2023-10-13T14:52:02;12.13;;;3.50;;
6372;SDS011;3219;51.362;7.074;2023-10-13T14:54:31;10.00;;;3.63;;
6372;SDS011;3219;51.362;7.074;2023-10-13T14:57:00;11.13;;;3.97;;
6372;SDS011;3219;51.362;7.074;2023-10-13T14:59:30;10.60;;;3.20;;
6372;SDS011;3219;51.362;7.074;2023-10-13T15:02:03;11.02;;;3.70;;
6372;SDS011;3219;51.362;7.074;2023-10-13T15:04:32;9.93;;;3.42;;
6372;SDS011;3219;51.362;7.074;2023-10-13T15:07:00;12.10;;;3.72;;
6372;SDS011;3219;51.362;7.074;2023-10-13T15:09:29;10.80;;;3.20;;
6372;SDS011;3219;51.362;7.074;2023-10-13T15:11:58;8.20;;;2.78;;
6372;SDS011;3219;51.362;7.074;2023-10-13T15:14:32;9.32;;;3.25;;
6372;SDS011;3219;51.362;7.074;2023-10-13T15:17:02;9.32;;;3.35;;
6372;SDS011;3219;51.362;7.074;2023-10-13T15:19:31;10.10;;;3.20;;
6372;SDS011;3219;51.362;7.074;2023-10-13T15:22:03;13.32;;;3.30;;
6372;SDS011;3219;51.362;7.074;2023-10-13T15:24:32;12.55;;;3.55;;
6372;SDS011;3219;51.362;7.074;2023-10-13T15:27:09;8.70;;;2.80;;
6372;SDS011;3219;51.362;7.074;2023-10-13T15:29:41;11.55;;;3.70;;
6372;SDS011;3219;51.362;7.074;2023-10-13T15:32:15;8.75;;;2.75;;
6372;SDS011;3219;51.362;7.074;2023-10-13T15:35:02;8.65;;;2.58;;
6372;SDS011;3219;51.362;7.074;2023-10-13T15:37:34;7.65;;;3.08;;
6372;SDS011;3219;51.362;7.074;2023-10-13T15:40:03;10.70;;;3.95;;
6372;SDS011;3219;51.362;7.074;2023-10-13T15:42:35;7.97;;;3.08;;
6372;SDS011;3219;51.362;7.074;2023-10-13T15:45:08;7.28;;;2.45;;
6372;SDS011;3219;51.362;7.074;2023-10-13T15:47:43;8.57;;;3.08;;
6372;SDS011;3219;51.362;7.074;2023-10-13T15:52:43;9.27;;;3.13;;
6372;SDS011;3219;51.362;7.074;2023-10-13T15:55:15;8.50;;;3.55;;
6372;SDS011;3219;51.362;7.074;2023-10-13T15:57:44;8.80;;;3.28;;
6372;SDS011;3219;51.362;7.074;2023-10-13T16:00:19;8.63;;;2.92;;
6372;SDS011;3219;51.362;7.074;2023-10-13T16:02:51;8.15;;;3.38;;
6372;SDS011;3219;51.362;7.074;2023-10-13T16:05:21;11.32;;;3.50;;
6372;SDS011;3219;51.362;7.074;2023-10-13T16:07:50;9.23;;;3.08;;
6372;SDS011;3219;51.362;7.074;2023-10-13T16:10:21;10.10;;;3.53;;
6372;SDS011;3219;51.362;7.074;2023-10-13T16:12:52;8.63;;;2.85;;
6372;SDS011;3219;51.362;7.074;2023-10-13T16:15:24;7.78;;;2.95;;
6372;SDS011;3219;51.362;7.074;2023-10-13T16:17:52;9.30;;;3.90;;
6372;SDS011;3219;51.362;7.074;2023-10-13T16:20:21;11.30;;;4.07;;
6372;SDS011;3219;51.362;7.074;2023-10-13T16:22:50;8.20;;;3.20;;
6372;SDS011;3219;51.362;7.074;2023-10-13T16:25:18;7.93;;;3.65;;
6372;SDS011;3219;51.362;7.074;2023-10-13T16:27:49;7.97;;;3.67;;
6372;SDS011;3219;51.362;7.074;2023-10-13T16:30:18;12.23;;;3.55;;